createdAt,value
2018-02-19T00:04:19.496Z,26.40
2018-02-19T00:09:23.396Z,31.23
2018-02-19T00:14:26.479Z,30.63
2018-02-19T00:19:30.339Z,29.37
2018-02-19T00:24:35.091Z,32.97
2018-02-19T00:29:39.627Z,31.70
2018-02-19T00:34:42.715Z,32.88
2018-02-19T00:39:47.312Z,32.20
2018-02-19T00:44:50.411Z,32.40
2018-02-19T00:49:53.508Z,32.80
2018-02-19T00:54:56.604Z,31.53
2018-02-19T01:00:01.391Z,32.37
2018-02-19T01:05:04.495Z,32.27
2018-02-19T01:10:08.723Z,31.40
2018-02-19T01:15:11.824Z,33.00
2018-02-19T01:20:14.931Z,31.43
2018-02-19T01:25:19.380Z,32.20
2018-02-19T01:30:22.475Z,31.70
2018-02-19T01:35:25.558Z,33.00
2018-02-19T01:40:29.788Z,34.60
2018-02-19T01:45:33.656Z,33.90
2018-02-19T01:50:36.748Z,32.60
2018-02-19T01:55:39.853Z,33.50
2018-02-19T02:00:44.447Z,33.65
2018-02-19T02:05:47.553Z,33.33
2018-02-19T02:10:50.632Z,33.77
2018-02-19T02:15:54.497Z,32.83
2018-02-19T02:20:58.927Z,35.40
2018-02-19T02:26:02.801Z,35.13
2018-02-19T02:31:05.889Z,35.33
2018-02-19T02:36:09.924Z,35.30
2018-02-19T02:41:13.012Z,36.23
2018-02-19T02:46:16.865Z,34.40
2018-02-19T02:51:19.955Z,35.10
2018-02-19T02:56:23.990Z,34.85
2018-02-19T03:01:27.864Z,34.67
2018-02-19T03:06:31.719Z,33.20
2018-02-19T03:11:35.576Z,33.77
2018-02-19T03:16:38.667Z,32.53
2018-02-19T03:21:43.792Z,32.77
2018-02-19T03:26:47.008Z,34.47
2018-02-19T03:31:51.024Z,34.00
2018-02-19T03:36:54.612Z,30.90
2018-02-19T03:41:57.816Z,34.53
2018-02-19T03:47:01.024Z,31.53
2018-02-19T03:52:04.199Z,33.67
2018-02-19T03:57:07.504Z,34.13
2018-02-19T04:02:10.675Z,32.23
2018-02-19T04:07:13.772Z,34.17
2018-02-19T04:12:17.955Z,34.00
2018-02-19T04:17:21.865Z,33.57
2018-02-19T04:22:25.061Z,34.53
2018-02-19T04:27:29.524Z,30.23
2018-02-19T04:32:32.611Z,34.47
2018-02-19T04:37:35.732Z,35.00
2018-02-19T04:42:38.817Z,34.67
2018-02-19T04:47:41.923Z,34.27
2018-02-19T04:52:46.692Z,32.77
2018-02-19T04:57:49.780Z,33.40
2018-02-19T05:02:52.872Z,31.27
2018-02-19T05:07:57.196Z,30.83
2018-02-19T05:13:00.300Z,33.55
2018-02-19T05:18:03.788Z,32.73
2018-02-19T05:23:08.017Z,33.90
2018-02-19T05:28:12.344Z,32.30
2018-02-19T05:33:15.440Z,33.77
2018-02-19T05:38:18.705Z,34.13
2018-02-19T05:43:23.216Z,31.17
2018-02-19T05:48:26.377Z,31.00
2018-02-19T05:53:29.546Z,30.57
2018-02-19T05:58:34.109Z,28.17
2018-02-19T06:03:37.268Z,27.97
2018-02-19T06:08:40.395Z,28.60
2018-02-19T06:13:44.329Z,29.23
2018-02-19T06:18:48.973Z,28.90
2018-02-19T06:23:53.653Z,27.92
2018-02-19T06:28:56.758Z,27.70
2018-02-19T06:34:00.613Z,27.47
2018-02-19T06:39:04.474Z,28.40
2018-02-19T06:44:08.319Z,27.33
2018-02-19T06:49:11.826Z,25.90
2018-02-19T06:54:14.917Z,26.17
2018-02-19T06:59:18.001Z,26.87
2018-02-19T07:04:21.477Z,25.97
2018-02-19T07:09:25.466Z,34.03
2018-02-19T07:14:29.306Z,29.50
2018-02-19T07:19:32.832Z,27.97
2018-02-19T07:24:37.243Z,28.90
2018-02-19T07:29:42.298Z,29.93
2018-02-19T07:34:45.779Z,26.90
2018-02-19T07:39:49.647Z,30.60
2018-02-19T07:44:53.489Z,30.80
2018-02-19T07:49:56.573Z,31.33
2018-02-19T07:55:01.060Z,29.13
2018-02-19T08:00:04.158Z,28.13
2018-02-19T08:05:07.634Z,29.47
2018-02-19T08:10:11.104Z,26.70
2018-02-19T08:15:14.984Z,33.72
2018-02-19T08:20:18.464Z,26.67
2018-02-19T08:25:22.908Z,25.43
2018-02-19T08:30:27.368Z,23.57
2018-02-19T08:35:30.864Z,23.30
2018-02-19T08:40:35.068Z,24.73
2018-02-19T08:45:39.504Z,24.12
2018-02-19T08:50:42.588Z,22.97
2018-02-19T08:55:45.671Z,22.83
2018-02-19T09:00:49.047Z,22.00
2018-02-19T09:05:52.137Z,21.47
2018-02-19T09:10:55.228Z,20.27
2018-02-19T09:15:59.846Z,21.02
2018-02-19T09:21:04.170Z,19.57
2018-02-19T09:26:07.259Z,21.23
2018-02-19T09:31:11.695Z,20.33
2018-02-19T09:36:14.806Z,20.20
2018-02-19T09:41:18.149Z,19.97
2018-02-19T09:46:22.013Z,18.77
2018-02-19T09:51:25.116Z,20.70
2018-02-19T09:56:29.052Z,19.60
2018-02-19T10:01:32.151Z,22.83
2018-02-19T10:06:35.248Z,24.63
2018-02-19T10:11:40.105Z,19.98
2018-02-19T10:16:43.200Z,18.83
2018-02-19T10:21:47.049Z,20.33
2018-02-19T10:26:50.147Z,19.90
2018-02-19T10:31:53.231Z,20.47
2018-02-19T10:36:57.675Z,19.40
2018-02-19T10:42:02.274Z,17.97
2018-02-19T10:47:05.365Z,21.40
2018-02-19T10:52:09.227Z,17.97
2018-02-19T10:57:13.461Z,18.43
2018-02-19T11:02:17.316Z,18.77
2018-02-19T11:07:21.764Z,18.05
2018-02-19T11:12:25.617Z,18.43
2018-02-19T11:17:28.701Z,17.00
2018-02-19T11:22:31.784Z,17.60
2018-02-19T11:27:34.871Z,17.87
2018-02-19T11:32:39.105Z,18.43
2018-02-19T11:37:43.765Z,18.00
2018-02-19T11:42:47.259Z,19.27
2018-02-19T11:47:51.481Z,16.90
2018-02-19T11:52:55.414Z,19.35
2018-02-19T11:57:59.812Z,18.40
2018-02-19T12:03:03.676Z,17.17
2018-02-19T12:08:07.516Z,18.43
2018-02-19T12:13:10.988Z,18.30
2018-02-19T12:18:14.089Z,18.47
2018-02-19T12:23:17.582Z,19.00
2018-02-19T12:28:22.096Z,18.37
2018-02-19T12:33:25.956Z,17.23
2018-02-19T12:38:29.464Z,18.37
2018-02-19T12:43:32.957Z,19.13
2018-02-19T12:48:37.572Z,18.75
2018-02-19T12:53:40.676Z,18.33
2018-02-19T12:58:44.914Z,18.27
2018-02-19T13:03:49.496Z,18.47
2018-02-19T13:08:53.748Z,17.90
2018-02-19T13:13:57.216Z,17.83
2018-02-19T13:19:01.084Z,17.37
2018-02-19T13:24:04.192Z,17.90
2018-02-19T13:29:08.811Z,17.95
2018-02-19T13:34:13.255Z,16.67
2018-02-19T13:39:16.348Z,16.87
2018-02-19T13:44:20.940Z,17.73
2018-02-19T13:49:24.019Z,18.10
2018-02-19T13:54:27.884Z,17.50
2018-02-19T13:59:32.606Z,17.90
2018-02-19T14:04:35.700Z,17.43
2018-02-19T14:09:39.928Z,17.80
2018-02-19T14:14:43.030Z,17.57
2018-02-19T14:19:47.565Z,19.13
2018-02-19T14:24:51.040Z,19.53
2018-02-19T14:29:54.175Z,18.97
2018-02-19T14:34:58.161Z,17.97
2018-02-19T14:40:01.249Z,18.70
2018-02-19T14:45:04.361Z,19.12
2018-02-19T14:50:08.224Z,18.42
2018-02-19T14:55:11.316Z,19.03
2018-02-19T15:00:14.401Z,19.15
2018-02-19T15:05:18.257Z,18.77
2018-02-19T15:10:22.696Z,19.23
2018-02-19T15:15:25.811Z,18.50
2018-02-19T15:20:30.397Z,19.10
2018-02-19T15:25:33.488Z,18.45
2018-02-19T15:30:36.974Z,18.40
2018-02-19T15:35:41.417Z,19.23
2018-02-19T15:40:44.503Z,17.57
2018-02-19T15:45:48.373Z,18.60
2018-02-19T15:50:52.591Z,19.23
2018-02-19T15:55:55.689Z,18.77
2018-02-19T16:01:00.115Z,18.17
2018-02-19T16:06:03.598Z,19.70
2018-02-19T16:11:06.677Z,18.48
2018-02-19T16:16:10.535Z,17.70
2018-02-19T16:21:13.627Z,19.27
2018-02-19T16:26:16.720Z,17.63
2018-02-19T16:31:21.191Z,17.70
2018-02-19T16:36:24.694Z,18.43
2018-02-19T16:41:28.540Z,19.40
2018-02-19T16:46:31.637Z,18.85
2018-02-19T16:51:34.724Z,18.83
2018-02-19T16:56:39.167Z,19.90
2018-02-19T17:01:42.653Z,19.50
2018-02-19T17:06:46.877Z,19.20
2018-02-19T17:11:50.744Z,18.90
2018-02-19T17:16:54.982Z,19.57
2018-02-19T17:21:59.438Z,20.27
2018-02-19T17:27:04.033Z,20.17
2018-02-19T17:32:08.256Z,20.57
2018-02-19T17:37:12.112Z,19.30
2018-02-19T17:42:15.198Z,19.63
2018-02-19T17:47:19.432Z,20.23
2018-02-19T17:52:22.919Z,19.87
2018-02-19T17:57:26.004Z,19.47
2018-02-19T18:02:29.864Z,22.43
2018-02-19T18:07:34.100Z,21.67
2018-02-19T18:12:37.584Z,21.07
2018-02-19T18:17:41.079Z,21.67
2018-02-19T18:22:44.157Z,21.43
2018-02-19T18:27:48.017Z,22.20
2018-02-19T18:32:51.222Z,22.30
2018-02-19T18:37:54.697Z,21.97
2018-02-19T18:42:57.793Z,22.83
2018-02-19T18:48:01.283Z,22.20
2018-02-19T18:53:04.373Z,22.63
2018-02-19T18:58:08.230Z,23.93
2018-02-19T19:03:12.665Z,24.03
2018-02-19T19:14:04.636Z,22.50
2018-02-19T19:19:07.724Z,23.97
2018-02-19T19:24:11.193Z,25.47
2018-02-19T19:29:14.272Z,22.93
2018-02-19T19:34:17.340Z,23.93
2018-02-19T19:39:21.800Z,24.63
2018-02-19T19:44:25.639Z,25.70
2018-02-19T19:49:29.501Z,26.43
2018-02-19T19:54:32.580Z,25.30
2018-02-19T19:59:35.657Z,24.70
2018-02-19T20:04:39.500Z,24.40
2018-02-19T20:09:43.734Z,25.53
2018-02-19T20:14:46.804Z,25.03
2018-02-19T20:19:51.300Z,24.90
2018-02-19T20:24:54.728Z,25.35
2018-02-19T20:29:58.197Z,24.40
2018-02-19T20:35:01.676Z,23.00
2018-02-19T20:40:06.152Z,25.43
2018-02-19T20:45:09.619Z,25.53
2018-02-19T20:50:12.704Z,25.23
2018-02-19T20:55:15.784Z,26.10
2018-02-19T21:00:18.872Z,25.60
2018-02-19T21:05:22.728Z,26.37
2018-02-19T21:10:25.820Z,27.30
2018-02-19T21:15:29.661Z,26.67
2018-02-19T21:20:33.889Z,26.57
2018-02-19T21:25:38.485Z,26.33
2018-02-19T21:30:41.980Z,24.63
2018-02-19T21:35:45.061Z,26.03
2018-02-19T21:40:48.162Z,28.33
2018-02-19T21:45:51.256Z,27.07
2018-02-19T21:50:55.108Z,28.00
2018-02-19T21:55:58.590Z,28.30
2018-02-19T22:01:03.172Z,27.60
2018-02-19T22:06:06.652Z,28.33
2018-02-19T22:11:10.496Z,28.20
2018-02-19T22:16:13.571Z,27.83
2018-02-19T22:21:17.793Z,28.40
2018-02-19T22:26:21.636Z,26.20
2018-02-19T22:31:26.071Z,26.87
2018-02-19T22:36:29.929Z,27.53
2018-02-19T22:41:33.005Z,28.00
2018-02-19T22:46:37.603Z,25.83
2018-02-19T22:51:40.684Z,26.77
2018-02-19T22:56:44.547Z,27.23
2018-02-19T23:01:48.992Z,28.33
2018-02-19T23:06:52.089Z,27.43
2018-02-19T23:11:56.672Z,26.87
2018-02-19T23:16:59.768Z,26.52
2018-02-19T23:22:03.234Z,24.80
2018-02-19T23:27:07.824Z,26.17
2018-02-19T23:32:12.050Z,29.00
2018-02-19T23:37:16.492Z,26.60
2018-02-19T23:42:20.001Z,26.37
2018-02-19T23:47:24.107Z,27.03
2018-02-19T23:52:27.197Z,26.77
2018-02-19T23:57:31.076Z,27.37
